Time;durP1;ratioP1;P1;durP2;ratioP2;P2;SDS_P1;SDS_P2;PMS_P1;PMS_P2;Temp;Humidity;BMP_temperature;BMP_pressure;BME280_temperature;BME280_humidity;BME280_pressure;Samples;Min_cycle;Max_cycle;Signal;HPM_P1;HPM_P2
2022/06/02 00:02:28;;;;;;;7.57;3.42;;;21.30;67.50;;;;;;4968701;28;20027;-61
2022/06/02 00:05:02;;;;;;;5.82;3.40;;;21.30;67.90;;;;;;4962836;28;20114;-61
2022/06/02 00:07:43;;;;;;;4.72;3.58;;;21.20;68.10;;;;;;4964961;28;20035;-60
2022/06/02 00:10:11;;;;;;;4.22;2.92;;;21.10;68.90;;;;;;4964478;28;21747;-61
2022/06/02 00:12:54;;;;;;;5.47;3.65;;;21.10;69.00;;;;;;4964241;28;20560;-61
2022/06/02 00:15:26;;;;;;;4.32;3.00;;;21.20;68.30;;;;;;4963099;28;20403;-60
2022/06/02 00:18:12;;;;;;;6.75;3.28;;;21.20;68.10;;;;;;4962895;28;20039;-60
2022/06/02 00:20:56;;;;;;;6.30;3.92;;;21.10;68.20;;;;;;4961368;28;20073;-60
2022/06/02 00:23:52;;;;;;;5.22;3.35;;;21.10;68.20;;;;;;4947645;28;20217;-60
2022/06/02 00:26:45;;;;;;;5.32;3.30;;;21.00;68.60;;;;;;4982484;28;20049;-61
2022/06/02 00:29:30;;;;;;;8.27;3.37;;;20.80;68.80;;;;;;5002542;28;20042;-61
2022/06/02 00:32:02;;;;;;;5.82;3.85;;;20.80;69.40;;;;;;4983211;28;20467;-60
2022/06/02 00:34:40;;;;;;;4.57;3.70;;;20.80;69.60;;;;;;4997878;28;20072;-61
2022/06/02 00:37:17;;;;;;;6.35;3.85;;;20.70;70.00;;;;;;5003224;28;20367;-61
2022/06/02 00:39:46;;;;;;;4.63;3.35;;;20.70;70.10;;;;;;4985713;28;20065;-61
2022/06/02 00:43:01;;;;;;;5.00;3.40;;;20.60;70.20;;;;;;5006472;28;20080;-61
2022/06/02 00:45:26;;;;;;;;;;;20.60;70.40;;;;;;5000782;28;20065;-60
2022/06/02 00:48:06;;;;;;;4.97;3.92;;;20.60;70.20;;;;;;5011979;28;19909;-61
2022/06/02 00:50:37;;;;;;;7.38;4.28;;;20.50;71.10;;;;;;4987652;28;20053;-60
2022/06/02 00:53:21;;;;;;;5.40;3.90;;;20.50;71.60;;;;;;5005085;28;20034;-61
2022/06/02 00:59:16;;;;;;;7.38;4.53;;;20.40;72.30;;;;;;5011547;28;20052;-60
2022/06/02 01:01:42;;;;;;;15.52;4.50;;;20.30;72.40;;;;;;4994670;28;20033;-61
2022/06/02 01:04:17;;;;;;;6.15;5.05;;;20.30;72.30;;;;;;5011049;28;20034;-61
2022/06/02 01:07:07;;;;;;;9.70;4.93;;;20.20;72.90;;;;;;5003706;28;20121;-61
2022/06/02 01:09:38;;;;;;;8.52;4.50;;;20.30;73.00;;;;;;5003941;28;20471;-61
2022/06/02 01:12:03;;;;;;;8.90;4.75;;;20.30;72.80;;;;;;5012576;28;20034;-61
2022/06/02 01:14:29;;;;;;;7.78;5.07;;;20.30;72.90;;;;;;4994352;28;20052;-61
2022/06/02 01:17:20;;;;;;;7.70;5.10;;;20.20;73.20;;;;;;5011113;28;20036;-61
2022/06/02 01:20:15;;;;;;;6.95;4.68;;;20.20;73.50;;;;;;5004774;28;20038;-60
2022/06/02 01:22:59;;;;;;;9.23;5.15;;;20.30;74.10;;;;;;4999322;28;20127;-60
2022/06/02 01:26:02;;;;;;;5.32;4.75;;;20.30;73.50;;;;;;5007634;28;20049;-60
2022/06/02 01:28:27;;;;;;;8.00;5.53;;;20.30;73.50;;;;;;5013250;28;20169;-61
2022/06/02 01:31:02;;;;;;;9.85;5.40;;;20.30;73.20;;;;;;5013079;28;20033;-61
2022/06/02 01:33:50;;;;;;;7.00;5.43;;;20.20;73.30;;;;;;4998390;28;20061;-61
2022/06/02 01:36:50;;;;;;;6.85;5.05;;;20.30;73.50;;;;;;5007232;28;20092;-61
2022/06/02 01:39:44;;;;;;;7.10;5.82;;;20.20;73.60;;;;;;4952664;28;20064;-60
2022/06/02 01:42:28;;;;;;;7.68;6.15;;;20.20;74.40;;;;;;5004991;28;20074;-60
2022/06/02 01:44:59;;;;;;;13.60;6.85;;;20.20;73.80;;;;;;5011863;28;20041;-61
2022/06/02 01:47:31;;;;;;;6.78;5.63;;;20.20;74.00;;;;;;5013495;28;20065;-62
2022/06/02 01:50:24;;;;;;;7.68;6.75;;;20.20;74.30;;;;;;5004940;28;20049;-61
2022/06/02 01:52:58;;;;;;;8.18;5.88;;;20.20;74.40;;;;;;5012714;28;20471;-61
2022/06/02 01:55:54;;;;;;;8.73;5.60;;;20.20;74.10;;;;;;5010432;28;20083;-60
2022/06/02 01:58:32;;;;;;;9.68;5.60;;;20.10;74.30;;;;;;5009241;28;20042;-61
2022/06/02 02:01:09;;;;;;;6.22;5.13;;;20.20;74.30;;;;;;5010704;28;20034;-61
2022/06/02 02:03:55;;;;;;;6.95;5.32;;;20.20;74.20;;;;;;5011771;28;20483;-60
2022/06/02 02:06:43;;;;;;;8.15;6.00;;;20.10;74.30;;;;;;5012250;28;20529;-60
2022/06/02 02:09:12;;;;;;;7.07;5.25;;;20.10;74.40;;;;;;5006049;28;20314;-60
2022/06/02 02:11:52;;;;;;;9.15;6.00;;;20.10;74.40;;;;;;4993657;28;20033;-60
2022/06/02 02:14:36;;;;;;;7.78;5.80;;;20.00;74.90;;;;;;5002504;28;20036;-60
2022/06/02 02:17:05;;;;;;;6.57;5.70;;;19.90;74.90;;;;;;5012420;28;20394;-61
2022/06/02 02:19:56;;;;;;;11.10;5.70;;;19.80;75.20;;;;;;5012177;28;20030;-62
2022/06/02 02:22:21;;;;;;;8.88;5.63;;;19.80;75.50;;;;;;5011197;28;20033;-59
2022/06/02 02:25:09;;;;;;;6.97;5.90;;;19.80;75.20;;;;;;5010849;28;20025;-60
2022/06/02 02:30:52;;;;;;;6.80;5.28;;;19.80;75.50;;;;;;5009058;28;20069;-60
2022/06/02 02:33:32;;;;;;;8.00;5.22;;;19.60;76.10;;;;;;4989890;28;20037;-60
2022/06/02 02:36:22;;;;;;;8.50;5.50;;;19.60;76.30;;;;;;5008321;28;20061;-60
2022/06/02 02:39:07;;;;;;;7.53;5.70;;;19.60;76.40;;;;;;5013412;28;20021;-60
2022/06/02 02:42:18;;;;;;;6.95;5.43;;;19.50;76.30;;;;;;5008933;28;20676;-60
2022/06/02 02:45:13;;;;;;;6.15;5.05;;;19.50;76.40;;;;;;5001115;28;20505;-61
2022/06/02 02:47:51;;;;;;;;;;;19.50;76.30;;;;;;5003849;28;20026;-60
2022/06/02 02:50:41;;;;;;;9.02;4.55;;;19.40;76.10;;;;;;5004923;28;19925;-61
2022/06/02 02:53:21;;;;;;;6.85;4.70;;;19.40;75.80;;;;;;5005488;28;20463;-61
2022/06/02 02:56:11;;;;;;;6.45;4.43;;;19.50;75.40;;;;;;4993586;28;20046;-61
2022/06/02 02:58:43;;;;;;;6.50;4.82;;;19.50;75.30;;;;;;5008972;28;20187;-61
2022/06/02 03:01:20;;;;;;;6.68;4.57;;;19.50;75.30;;;;;;5008484;28;20044;-62
2022/06/02 03:04:06;;;;;;;8.27;4.88;;;19.50;75.30;;;;;;5003228;28;20092;-60
2022/06/02 03:06:37;;;;;;;8.00;4.00;;;19.60;75.10;;;;;;5004552;28;20076;-60
2022/06/02 03:09:18;;;;;;;6.45;4.95;;;19.50;74.90;;;;;;5002923;28;20055;-61
2022/06/02 03:12:25;;;;;;;6.05;3.65;;;19.60;74.50;;;;;;5001690;28;20026;-60
2022/06/02 03:15:13;;;;;;;5.72;4.60;;;19.50;74.40;;;;;;4943046;28;20047;-61
2022/06/02 03:17:48;;;;;;;6.65;4.20;;;19.50;74.40;;;;;;4945023;28;20495;-61
2022/06/02 03:20:26;;;;;;;5.00;4.10;;;19.60;73.80;;;;;;4943583;28;20515;-62
2022/06/02 03:23:06;;;;;;;6.30;3.88;;;19.70;73.40;;;;;;4945773;28;20036;-61
2022/06/02 03:25:41;;;;;;;5.55;3.95;;;19.70;73.20;;;;;;4945910;28;20031;-61
2022/06/02 03:28:20;;;;;;;5.55;3.88;;;19.70;72.80;;;;;;4942443;28;20527;-61
2022/06/02 03:31:00;;;;;;;9.05;3.97;;;19.80;72.30;;;;;;4923746;28;20035;-61
2022/06/02 03:33:40;;;;;;;5.68;4.03;;;19.70;72.00;;;;;;4947209;28;20039;-61
2022/06/02 03:36:11;;;;;;;7.72;4.07;;;19.80;71.70;;;;;;4943638;28;20118;-61
2022/06/02 03:39:07;;;;;;;4.15;3.33;;;19.80;71.50;;;;;;4935600;28;20491;-62
2022/06/02 03:41:43;;;;;;;5.30;3.63;;;19.80;71.20;;;;;;4926987;28;20114;-59
2022/06/02 03:45:15;;;;;;;6.10;3.72;;;19.90;70.80;;;;;;4945622;28;20400;-60
2022/06/02 03:47:58;;;;;;;6.70;3.85;;;19.90;70.70;;;;;;4867699;29;20073;-60
2022/06/02 03:50:46;;;;;;;4.95;4.20;;;19.90;70.70;;;;;;4872506;29;20097;-60
2022/06/02 03:53:15;;;;;;;4.75;3.78;;;19.90;70.80;;;;;;4921785;29;20032;-61
2022/06/02 03:56:02;;;;;;;6.03;3.88;;;20.00;70.50;;;;;;4922440;29;20400;-60
2022/06/02 03:58:43;;;;;;;8.68;4.55;;;20.10;70.50;;;;;;4923492;29;20047;-61
2022/06/02 04:01:12;;;;;;;5.88;4.10;;;20.10;70.30;;;;;;4921788;29;20075;-61
2022/06/02 04:03:49;;;;;;;5.38;3.95;;;20.10;70.40;;;;;;4926264;29;20034;-60
2022/06/02 04:06:21;;;;;;;5.38;3.63;;;20.10;70.50;;;;;;4924646;29;20044;-60
2022/06/02 04:08:47;;;;;;;9.60;4.60;;;20.10;70.20;;;;;;4922601;29;20390;-61
2022/06/02 04:11:24;;;;;;;7.78;4.25;;;20.00;70.10;;;;;;4921932;29;20064;-61
2022/06/02 04:14:04;;;;;;;8.00;4.38;;;20.00;70.30;;;;;;4920083;29;20044;-60
2022/06/02 04:16:33;;;;;;;5.93;3.95;;;20.00;70.50;;;;;;4925109;29;20043;-60
2022/06/02 04:22:23;;;;;;;8.13;5.30;;;20.10;70.20;;;;;;5002865;28;20073;-61
2022/06/02 04:25:03;;;;;;;7.03;4.20;;;20.10;70.10;;;;;;5006453;28;20446;-60
2022/06/02 04:27:48;;;;;;;7.07;4.20;;;20.10;70.00;;;;;;5003489;28;20125;-60
2022/06/02 04:30:25;;;;;;;8.25;4.88;;;20.20;69.90;;;;;;5008068;28;20035;-60
2022/06/02 04:33:10;;;;;;;7.57;4.88;;;20.10;69.40;;;;;;5004819;28;20166;-60
2022/06/02 04:35:51;;;;;;;6.53;4.57;;;20.20;69.40;;;;;;5002919;28;20030;-61
2022/06/02 04:38:52;;;;;;;6.53;4.30;;;20.20;69.20;;;;;;5001547;28;20034;-61
2022/06/02 04:41:31;;;;;;;6.32;4.45;;;20.30;68.90;;;;;;4975196;28;20103;-60
2022/06/02 04:44:24;;;;;;;10.13;4.45;;;20.30;68.90;;;;;;5004472;28;20044;-61
2022/06/02 04:47:02;;;;;;;5.45;3.88;;;20.40;68.60;;;;;;5007060;28;21709;-61
2022/06/02 04:49:50;;;;;;;5.72;3.75;;;20.40;68.30;;;;;;5004413;28;20055;-61
2022/06/02 04:52:36;;;;;;;6.90;4.07;;;20.50;67.90;;;;;;5004912;28;20041;-62
2022/06/02 04:55:59;;;;;;;8.55;4.38;;;20.50;67.60;;;;;;5004352;28;20479;-60
2022/06/02 04:58:43;;;;;;;10.05;4.13;;;20.60;67.50;;;;;;4943625;29;20043;-60
2022/06/02 05:01:37;;;;;;;7.63;4.10;;;20.60;66.90;;;;;;4946292;29;20122;-60
2022/06/02 05:04:09;;;;;;;6.68;3.45;;;20.70;66.60;;;;;;4953645;28;20046;-60
2022/06/02 05:07:19;;;;;;;6.15;3.70;;;20.80;66.40;;;;;;4946233;29;20198;-61
2022/06/02 05:10:04;;;;;;;6.28;3.40;;;20.70;66.30;;;;;;4931753;29;20035;-61
2022/06/02 05:12:45;;;;;;;8.18;3.35;;;20.70;66.10;;;;;;4945677;29;20039;-60
2022/06/02 05:15:16;;;;;;;5.85;3.25;;;20.70;66.00;;;;;;4939467;29;20153;-60
2022/06/02 05:18:03;;;;;;;8.88;3.38;;;20.70;65.80;;;;;;4943999;29;20113;-60
2022/06/02 05:20:53;;;;;;;4.35;2.90;;;20.60;65.90;;;;;;4943613;29;20173;-60
2022/06/02 05:23:30;;;;;;;6.03;3.17;;;20.30;66.60;;;;;;4945936;29;20043;-60
2022/06/02 05:26:14;;;;;;;7.20;3.30;;;20.30;66.70;;;;;;4944309;29;20039;-61
2022/06/02 05:29:04;;;;;;;3.97;3.35;;;20.40;66.80;;;;;;4965128;28;20129;-61
2022/06/02 05:31:58;;;;;;;7.38;3.03;;;20.50;65.90;;;;;;5002410;28;20640;-61
2022/06/02 05:34:49;;;;;;;5.80;3.42;;;20.60;65.60;;;;;;5002684;28;20042;-60
2022/06/02 05:37:36;;;;;;;5.53;2.97;;;20.60;66.10;;;;;;5010640;28;20080;-60
2022/06/02 05:40:34;;;;;;;4.78;2.78;;;20.80;65.20;;;;;;5012260;28;20027;-61
2022/06/02 05:43:21;;;;;;;7.43;2.53;;;20.90;64.00;;;;;;4964846;28;20042;-60
2022/06/02 05:45:49;;;;;;;9.55;2.72;;;21.00;63.30;;;;;;5008659;28;20143;-61
2022/06/02 05:48:24;;;;;;;7.63;3.00;;;21.20;63.00;;;;;;5005819;28;20391;-60
2022/06/02 05:50:55;;;;;;;6.85;3.65;;;21.60;62.70;;;;;;5012688;28;20109;-61
2022/06/02 05:53:32;;;;;;;5.50;3.08;;;22.00;61.00;;;;;;5014040;28;20109;-62
2022/06/02 05:56:27;;;;;;;4.60;2.88;;;22.20;60.30;;;;;;5013461;28;20037;-61
2022/06/02 05:59:11;;;;;;;10.27;3.88;;;22.50;59.20;;;;;;4992921;28;20026;-61
2022/06/02 06:01:47;;;;;;;9.13;3.10;;;22.60;58.90;;;;;;5001144;28;20026;-61
2022/06/02 06:04:33;;;;;;;4.68;2.60;;;22.80;58.30;;;;;;5005907;28;20466;-61
2022/06/02 06:07:14;;;;;;;5.45;2.90;;;23.10;57.50;;;;;;4988519;28;20157;-60
2022/06/02 06:10:11;;;;;;;5.25;2.70;;;23.30;56.30;;;;;;5013394;28;20459;-61
2022/06/02 06:13:18;;;;;;;6.78;3.13;;;23.20;56.30;;;;;;5009564;28;20104;-62
2022/06/02 06:16:08;;;;;;;6.35;2.95;;;23.20;56.70;;;;;;4918936;29;20515;-60
2022/06/02 06:19:13;;;;;;;4.32;2.33;;;23.40;55.70;;;;;;5001801;28;20060;-60
2022/06/02 06:22:07;;;;;;;4.15;3.13;;;23.50;54.40;;;;;;4972053;28;20057;-60
2022/06/02 06:24:39;;;;;;;4.32;2.28;;;23.70;54.30;;;;;;5007507;28;20078;-60
2022/06/02 06:27:21;;;;;;;5.32;2.83;;;23.80;54.10;;;;;;5002052;28;20414;-58
2022/06/02 06:30:02;;;;;;;4.05;2.58;;;24.00;53.60;;;;;;5006940;28;20026;-61
2022/06/02 06:33:09;;;;;;;3.65;2.47;;;24.30;52.60;;;;;;4987395;28;20408;-61
2022/06/02 06:35:43;;;;;;;8.30;3.10;;;24.50;52.40;;;;;;4974437;28;20950;-61
2022/06/02 06:38:27;;;;;;;5.30;2.35;;;24.60;52.20;;;;;;5006685;28;20160;-61
2022/06/02 06:41:07;;;;;;;8.52;3.00;;;24.80;51.20;;;;;;4984384;28;20030;-61
2022/06/02 06:44:27;;;;;;;5.05;2.40;;;25.00;50.90;;;;;;5006509;28;20021;-60
2022/06/02 06:47:08;;;;;;;4.25;2.63;;;25.20;49.70;;;;;;4965313;28;20087;-61
2022/06/02 06:49:58;;;;;;;3.25;2.38;;;25.60;49.40;;;;;;4967793;28;20140;-61
2022/06/02 06:52:34;;;;;;;7.40;2.97;;;26.40;48.90;;;;;;4970657;28;20034;-62
2022/06/02 06:55:14;;;;;;;4.90;2.20;;;27.70;45.80;;;;;;4969453;28;20050;-61
2022/06/02 06:58:27;;;;;;;5.68;2.40;;;27.70;44.70;;;;;;4970233;28;20034;-61
2022/06/02 07:00:55;;;;;;;5.85;2.10;;;27.70;45.00;;;;;;4899328;29;20043;-60
2022/06/02 07:03:49;;;;;;;7.25;2.58;;;27.90;43.30;;;;;;4963098;28;20033;-60
2022/06/02 07:06:36;;;;;;;7.93;2.85;;;27.40;44.00;;;;;;4965144;28;20058;-60
2022/06/02 07:09:16;;;;;;;4.57;2.58;;;26.90;45.00;;;;;;4965232;28;20125;-60
2022/06/02 07:15:15;;;;;;;4.45;2.42;;;26.10;45.90;;;;;;4966505;28;20094;-58
2022/06/02 07:17:51;;;;;;;5.07;2.28;;;26.10;46.40;;;;;;4966508;28;20031;-52
2022/06/02 07:20:45;;;;;;;4.78;2.38;;;26.30;46.20;;;;;;4965052;28;20121;-59
2022/06/02 07:23:36;;;;;;;5.35;2.80;;;26.50;45.80;;;;;;4986190;28;20026;-60
2022/06/02 07:26:08;;;;;;;4.93;2.40;;;26.80;45.40;;;;;;4976385;28;20075;-61
2022/06/02 07:28:55;;;;;;;6.65;3.65;;;26.80;45.10;;;;;;4991046;28;20030;-60
2022/06/02 07:31:46;;;;;;;8.75;4.55;;;26.80;45.40;;;;;;4987090;28;20372;-60
2022/06/02 07:34:53;;;;;;;7.32;2.97;;;28.30;45.90;;;;;;4981569;28;20049;-61
2022/06/02 07:37:42;;;;;;;8.40;2.92;;;32.70;39.60;;;;;;4960090;28;20049;-60
2022/06/02 07:40:43;;;;;;;6.00;2.70;;;35.00;35.10;;;;;;4986773;28;20105;-60
2022/06/02 07:43:50;;;;;;;3.70;2.78;;;37.50;32.00;;;;;;4918566;28;20128;-61
2022/06/02 07:46:46;;;;;;;9.15;3.10;;;40.30;29.60;;;;;;4947304;29;20035;-62
2022/06/02 07:49:23;;;;;;;4.10;2.92;;;40.80;27.90;;;;;;4985427;28;20051;-62
2022/06/02 07:51:55;;;;;;;7.03;2.80;;;41.00;28.10;;;;;;5008744;28;20029;-61
2022/06/02 07:54:38;;;;;;;3.45;2.80;;;43.70;26.70;;;;;;5007901;28;20494;-61
2022/06/02 07:57:12;;;;;;;6.32;2.85;;;45.80;25.50;;;;;;4990007;28;20497;-61
2022/06/02 08:00:03;;;;;;;8.30;3.13;;;47.50;24.10;;;;;;4994434;28;20489;-61
2022/06/02 08:02:46;;;;;;;6.82;3.28;;;48.60;24.10;;;;;;5001430;28;20368;-60
2022/06/02 08:05:36;;;;;;;4.82;3.13;;;50.40;23.30;;;;;;5002386;28;20064;-61
2022/06/02 08:08:30;;;;;;;5.70;3.45;;;51.30;22.50;;;;;;5008518;28;20057;-61
2022/06/02 08:11:23;;;;;;;7.03;3.83;;;51.80;22.40;;;;;;4997799;28;20474;-62
2022/06/02 08:14:24;;;;;;;4.07;2.13;;;52.40;21.90;;;;;;4929057;29;20092;-61
2022/06/02 08:16:59;;;;;;;5.55;3.30;;;50.50;21.60;;;;;;4928145;29;20036;-61
2022/06/02 08:19:34;;;;;;;6.78;3.10;;;48.40;22.30;;;;;;4922844;29;20110;-61
2022/06/02 08:22:18;;;;;;;6.03;3.03;;;47.80;22.90;;;;;;4930870;29;20032;-61
2022/06/02 08:25:11;;;;;;;4.55;3.45;;;49.50;22.80;;;;;;4930665;29;20047;-61
2022/06/02 08:27:59;;;;;;;7.57;2.95;;;51.80;22.00;;;;;;4922700;29;20554;-61
2022/06/02 08:30:46;;;;;;;4.15;3.05;;;52.90;21.60;;;;;;4931155;29;20145;-61
2022/06/02 08:33:33;;;;;;;5.63;3.20;;;53.70;20.80;;;;;;4930844;29;20414;-61
2022/06/02 08:36:13;;;;;;;6.00;2.90;;;53.60;20.50;;;;;;4930743;29;20079;-61
2022/06/02 08:38:46;;;;;;;6.15;3.17;;;54.30;20.40;;;;;;4928414;29;20363;-61
2022/06/02 08:41:48;;;;;;;13.18;4.00;;;54.90;19.90;;;;;;4922357;29;20031;-61
2022/06/02 08:44:19;;;;;;;11.73;3.45;;;55.80;19.80;;;;;;4928985;29;20044;-61
2022/06/02 08:47:22;;;;;;;8.43;3.80;;;56.50;19.80;;;;;;4928256;29;20188;-60
2022/06/02 08:50:10;;;;;;;4.75;3.55;;;57.20;19.70;;;;;;4937566;28;20051;-61
2022/06/02 08:53:03;;;;;;;4.43;3.45;;;57.50;19.40;;;;;;4978623;28;20085;-61
2022/06/02 08:56:06;;;;;;;6.47;4.00;;;57.50;19.30;;;;;;4990108;28;20044;-61
2022/06/02 08:58:54;;;;;;;5.47;3.38;;;57.20;19.20;;;;;;5006058;28;20037;-61
2022/06/02 09:01:56;;;;;;;5.63;3.03;;;56.50;19.30;;;;;;4994102;28;20169;-61
2022/06/02 09:04:56;;;;;;;5.93;4.50;;;55.20;19.50;;;;;;4990253;28;20084;-60
2022/06/02 09:07:44;;;;;;;5.20;2.90;;;54.50;19.40;;;;;;5013398;28;20041;-62
2022/06/02 09:10:24;;;;;;;7.07;3.13;;;53.80;19.50;;;;;;5002779;28;20069;-63
2022/06/02 09:13:02;;;;;;;5.55;3.50;;;53.50;19.20;;;;;;4996424;28;20025;-63
2022/06/02 09:16:20;;;;;;;4.10;1.70;;;52.30;19.60;;;;;;4996404;28;20536;-62
2022/06/02 09:19:05;;;;;;;4.18;1.70;;;49.60;20.10;;;;;;4936901;29;20524;-62
2022/06/02 09:21:39;;;;;;;5.13;1.60;;;45.20;21.40;;;;;;4916914;29;20088;-63
2022/06/02 09:24:24;;;;;;;3.95;1.63;;;41.10;23.30;;;;;;4946271;29;20133;-62
2022/06/02 09:26:58;;;;;;;4.75;1.90;;;37.90;24.80;;;;;;4933014;29;20044;-62
2022/06/02 09:29:48;;;;;;;10.35;2.88;;;36.00;26.00;;;;;;4921665;29;20133;-61
2022/06/02 09:32:31;;;;;;;4.22;1.73;;;34.50;27.30;;;;;;4936318;29;20047;-62
2022/06/02 09:35:17;;;;;;;13.50;2.53;;;33.50;28.30;;;;;;4933811;29;20112;-63
2022/06/02 09:38:04;;;;;;;6.20;1.95;;;32.60;28.70;;;;;;4925998;29;20051;-61
2022/06/02 09:40:34;;;;;;;5.07;2.42;;;31.90;29.30;;;;;;4915209;29;20047;-62
2022/06/02 09:43:21;;;;;;;16.05;2.53;;;31.50;30.20;;;;;;4938595;29;20032;-62
2022/06/02 09:46:06;;;;;;;3.13;1.70;;;31.00;30.80;;;;;;4933887;29;20043;-63
2022/06/02 09:48:54;;;;;;;7.65;2.13;;;30.30;31.50;;;;;;4932464;29;20035;-61
2022/06/02 09:51:38;;;;;;;3.35;1.70;;;29.90;32.60;;;;;;4933944;28;20055;-61
2022/06/02 09:54:07;;;;;;;11.20;8.02;;;29.50;32.40;;;;;;5004529;28;20047;-63
2022/06/02 09:57:55;;;;;;;4.28;1.95;;;29.30;32.60;;;;;;5004821;28;20033;-62
2022/06/02 10:00:12;;;;;;;6.68;2.42;;;29.00;33.60;;;;;;5003861;28;20664;-63
2022/06/02 10:03:05;;;;;;;6.15;3.08;;;28.70;34.90;;;;;;5006198;28;20081;-62
2022/06/02 10:05:45;;;;;;;7.55;2.58;;;28.60;35.60;;;;;;5010419;28;20041;-62
2022/06/02 10:08:14;;;;;;;5.43;2.05;;;28.60;35.40;;;;;;5006209;28;20026;-62
2022/06/02 10:11:31;;;;;;;5.00;1.70;;;28.60;35.20;;;;;;4991697;28;20040;-61
2022/06/02 10:14:08;;;;;;;4.80;2.58;;;28.40;35.60;;;;;;4978009;28;20049;-63
2022/06/02 10:17:28;;;;;;;6.03;2.15;;;28.40;35.90;;;;;;4993148;28;20033;-62
2022/06/02 10:20:43;;;;;;;9.48;2.90;;;28.30;36.00;;;;;;4955402;28;20026;-61
2022/06/02 10:23:24;;;;;;;12.38;5.80;;;28.40;35.90;;;;;;4962799;28;20056;-63
2022/06/02 10:26:10;;;;;;;5.45;2.33;;;28.60;35.60;;;;;;5006706;28;20077;-63
2022/06/02 10:29:26;;;;;;;4.30;1.70;;;28.60;35.60;;;;;;5005515;28;20037;-61
2022/06/02 10:32:19;;;;;;;5.53;2.13;;;28.60;35.50;;;;;;4967520;28;20373;-62
2022/06/02 10:35:16;;;;;;;3.05;1.80;;;28.50;35.80;;;;;;4967807;28;20046;-61
2022/06/02 10:37:59;;;;;;;4.32;2.00;;;28.40;36.30;;;;;;4973493;28;20039;-62
2022/06/02 10:40:50;;;;;;;4.93;2.67;;;28.40;36.60;;;;;;4948443;28;20155;-61
2022/06/02 10:43:21;;;;;;;17.58;4.40;;;28.50;36.60;;;;;;4969699;28;20049;-60
2022/06/02 10:46:14;;;;;;;4.10;2.00;;;28.70;36.80;;;;;;4965433;28;20058;-63
2022/06/02 10:48:49;;;;;;;3.65;1.90;;;28.80;36.60;;;;;;4963047;28;20094;-61
2022/06/02 10:51:51;;;;;;;9.35;4.55;;;28.60;37.00;;;;;;4969100;28;20054;-61
2022/06/02 10:54:47;;;;;;;10.18;2.60;;;28.80;37.00;;;;;;4961356;28;20073;-59
2022/06/02 10:57:34;;;;;;;6.55;2.90;;;29.30;36.60;;;;;;4968142;28;20042;-61
2022/06/02 11:00:13;;;;;;;9.20;2.25;;;29.60;35.80;;;;;;4967736;28;20118;-61
2022/06/02 11:02:59;;;;;;;11.85;2.60;;;29.60;35.70;;;;;;4951188;28;20031;-61
2022/06/02 11:05:47;;;;;;;9.02;3.05;;;29.50;36.20;;;;;;4957784;28;20046;-61
2022/06/02 11:08:50;;;;;;;11.35;3.00;;;29.50;36.10;;;;;;5006172;28;20033;-62
2022/06/02 11:11:50;;;;;;;24.83;12.50;;;29.30;36.10;;;;;;5003391;28;20128;-60
2022/06/02 11:14:42;;;;;;;14.35;7.65;;;29.10;36.40;;;;;;5000572;28;20096;-60
2022/06/02 11:17:45;;;;;;;15.98;5.13;;;28.90;36.80;;;;;;5008325;28;20307;-61
2022/06/02 11:20:35;;;;;;;19.10;4.90;;;28.80;36.70;;;;;;5004776;28;20037;-61
2022/06/02 11:23:28;;;;;;;12.68;3.50;;;28.80;36.90;;;;;;4989269;28;20467;-60
2022/06/02 11:26:28;;;;;;;8.10;2.92;;;28.80;36.90;;;;;;5006152;28;20057;-60
2022/06/02 11:28:56;;;;;;;7.72;2.50;;;29.00;36.70;;;;;;4991285;28;20087;-62
2022/06/02 11:31:41;;;;;;;11.75;3.22;;;29.20;36.70;;;;;;4992682;28;20029;-61
2022/06/02 11:34:26;;;;;;;10.00;2.17;;;29.60;36.10;;;;;;5008856;28;20111;-62
2022/06/02 11:37:12;;;;;;;7.00;2.28;;;29.70;35.40;;;;;;5010638;28;20080;-62
2022/06/02 11:40:35;;;;;;;7.80;2.80;;;29.80;34.70;;;;;;4992157;28;20033;-60
2022/06/02 11:43:24;;;;;;;7.80;2.97;;;29.90;34.80;;;;;;4929687;29;20032;-61
2022/06/02 11:45:59;;;;;;;9.23;3.67;;;30.20;35.40;;;;;;4931029;29;20146;-60
2022/06/02 11:48:54;;;;;;;16.40;3.17;;;30.40;35.00;;;;;;4931131;29;20036;-61
2022/06/02 11:51:39;;;;;;;8.82;2.10;;;30.00;35.10;;;;;;4913940;29;20496;-61
2022/06/02 11:54:07;;;;;;;12.40;3.28;;;29.70;35.70;;;;;;4913914;29;20510;-60
2022/06/02 11:56:45;;;;;;;8.40;3.97;;;29.60;36.00;;;;;;4929474;29;20070;-60
2022/06/02 11:59:40;;;;;;;7.65;2.20;;;29.70;35.50;;;;;;4929579;29;20035;-60
2022/06/02 12:02:36;;;;;;;11.68;3.22;;;29.80;33.70;;;;;;4866670;29;20615;-61
2022/06/02 12:05:39;;;;;;;9.55;2.85;;;29.80;34.20;;;;;;4818685;29;20500;-61
2022/06/02 12:08:14;;;;;;;9.75;3.08;;;29.70;34.10;;;;;;4818810;29;20577;-61
2022/06/02 12:11:31;;;;;;;12.45;4.88;;;29.60;33.90;;;;;;4821223;29;20038;-61
2022/06/02 12:14:28;;;;;;;15.93;7.68;;;29.60;33.90;;;;;;4848578;29;20096;-61
2022/06/02 12:17:23;;;;;;;9.70;3.35;;;29.40;33.70;;;;;;4869880;29;20513;-61
2022/06/02 12:20:18;;;;;;;17.45;5.45;;;28.90;34.40;;;;;;4871303;29;20650;-61
2022/06/02 12:23:04;;;;;;;32.17;23.55;;;28.80;35.00;;;;;;4871538;29;20564;-61
2022/06/02 12:25:52;;;;;;;24.83;5.10;;;28.80;35.20;;;;;;4872757;29;20041;-61
2022/06/02 12:29:00;;;;;;;13.48;6.45;;;28.70;35.20;;;;;;4872507;29;20045;-62
2022/06/02 12:32:13;;;;;;;19.73;4.28;;;28.70;35.10;;;;;;4856275;29;20044;-61
2022/06/02 12:35:17;;;;;;;18.17;4.35;;;28.60;34.60;;;;;;4836925;29;20122;-62
2022/06/02 12:38:03;;;;;;;13.93;3.33;;;28.70;34.00;;;;;;4815231;29;20038;-61
2022/06/02 12:40:51;;;;;;;11.65;3.70;;;28.70;33.50;;;;;;4859180;29;20424;-62
2022/06/02 12:43:50;;;;;;;7.50;2.08;;;28.80;33.70;;;;;;4924424;29;20059;-62
2022/06/02 12:46:53;;;;;;;13.75;4.53;;;28.70;33.90;;;;;;4930886;29;20261;-63
2022/06/02 12:49:38;;;;;;;17.55;4.57;;;28.90;34.10;;;;;;4922910;29;20032;-61
2022/06/02 12:52:18;;;;;;;24.10;5.82;;;29.00;33.90;;;;;;4926922;29;20062;-61
2022/06/02 12:55:21;;;;;;;15.30;5.53;;;29.20;33.50;;;;;;4929328;29;20043;-63
2022/06/02 12:58:22;;;;;;;16.57;5.03;;;29.30;32.90;;;;;;4930803;29;20044;-62
2022/06/02 13:01:38;;;;;;;11.85;4.57;;;29.60;32.20;;;;;;4932244;29;20087;-62
2022/06/02 13:04:25;;;;;;;8.52;3.33;;;30.10;32.20;;;;;;4914510;29;20066;-61
2022/06/02 13:07:26;;;;;;;19.50;6.43;;;30.50;31.80;;;;;;4926964;29;20039;-61
2022/06/02 13:10:34;;;;;;;17.05;3.67;;;30.60;31.60;;;;;;4932840;29;20358;-61
2022/06/02 13:13:11;;;;;;;17.25;5.20;;;30.80;31.90;;;;;;4975318;28;20080;-62
2022/06/02 13:16:15;;;;;;;11.20;3.22;;;31.10;31.60;;;;;;5004199;28;20110;-65
2022/06/02 13:19:03;;;;;;;14.20;4.32;;;31.30;31.20;;;;;;4991906;28;20338;-64
2022/06/02 13:21:41;;;;;;;16.38;4.00;;;31.00;31.80;;;;;;5012488;28;20485;-61
2022/06/02 13:24:33;;;;;;;21.55;8.27;;;30.90;32.00;;;;;;5012904;28;20076;-61
2022/06/02 13:27:20;;;;;;;15.70;3.88;;;31.20;31.50;;;;;;5003400;28;20035;-61
2022/06/02 13:30:08;;;;;;;11.95;4.07;;;31.40;31.00;;;;;;4997719;28;20030;-61
2022/06/02 13:32:52;;;;;;;17.75;3.38;;;31.40;31.30;;;;;;5005609;28;20471;-61
2022/06/02 13:35:39;;;;;;;14.07;4.03;;;31.20;31.50;;;;;;4989335;28;20169;-56
2022/06/02 13:38:30;;;;;;;18.67;3.38;;;30.90;31.60;;;;;;5002955;28;20034;-60
2022/06/02 13:40:56;;;;;;;9.43;3.10;;;30.70;31.80;;;;;;5004794;28;20081;-59
2022/06/02 13:44:15;;;;;;;8.27;3.47;;;30.60;31.70;;;;;;5007101;28;20018;-60
2022/06/02 13:46:50;;;;;;;28.48;4.80;;;30.60;31.80;;;;;;5011128;28;20042;-58
2022/06/02 13:50:03;;;;;;;16.38;3.53;;;30.70;31.80;;;;;;5011785;28;20039;-59
2022/06/02 13:52:47;;;;;;;17.67;3.83;;;30.90;31.30;;;;;;4994497;28;20026;-61
2022/06/02 13:58:36;;;;;;;31.40;6.07;;;30.60;32.10;;;;;;5006690;28;20438;-61
2022/06/02 14:01:17;;;;;;;10.52;3.17;;;30.90;32.40;;;;;;5008991;28;20033;-60
2022/06/02 14:04:19;;;;;;;11.35;3.40;;;31.00;32.30;;;;;;5010793;28;20052;-60
2022/06/02 14:07:00;;;;;;;6.75;2.25;;;31.20;32.00;;;;;;5002688;28;20113;-61
2022/06/02 14:09:58;;;;;;;11.10;3.47;;;31.20;31.90;;;;;;4994702;28;20097;-62
2022/06/02 14:12:58;;;;;;;14.48;3.72;;;31.20;31.70;;;;;;4971638;28;20221;-62
2022/06/02 14:15:45;;;;;;;19.33;4.93;;;31.00;31.40;;;;;;5006932;28;20343;-62
2022/06/02 14:18:47;;;;;;;12.38;2.30;;;30.60;31.60;;;;;;5007233;28;20447;-61
2022/06/02 14:21:34;;;;;;;14.68;3.08;;;30.30;32.00;;;;;;5004238;28;20217;-58
2022/06/02 14:24:08;;;;;;;20.27;3.53;;;30.20;32.30;;;;;;5001366;28;20069;-63
2022/06/02 14:27:18;;;;;;;12.30;3.13;;;30.20;32.20;;;;;;5001641;28;20367;-60
2022/06/02 14:30:10;;;;;;;11.32;3.20;;;30.20;32.20;;;;;;5005625;28;20034;-60
2022/06/02 14:32:50;;;;;;;14.15;2.95;;;30.20;32.30;;;;;;5010674;28;20061;-62
2022/06/02 14:35:42;;;;;;;13.40;3.33;;;30.40;32.10;;;;;;5010893;28;20089;-62
2022/06/02 14:38:33;;;;;;;25.35;17.65;;;30.40;32.00;;;;;;4993765;28;20117;-59
2022/06/02 14:41:11;;;;;;;26.73;21.00;;;30.40;32.10;;;;;;4989630;28;20032;-61
2022/06/02 14:44:11;;;;;;;10.60;3.42;;;30.40;32.20;;;;;;4986729;28;20026;-56